createdAt,value
2019-02-15T00:01:50.131Z,34.30
2019-02-15T00:04:19.463Z,30.77
2019-02-15T00:06:48.893Z,30.47
2019-02-15T00:09:18.238Z,35.20
2019-02-15T00:11:47.565Z,36.20
2019-02-15T00:14:16.926Z,29.33
2019-02-15T00:16:46.394Z,32.33
2019-02-15T00:19:32.830Z,29.90
2019-02-15T00:22:02.197Z,31.20
2019-02-15T00:24:31.534Z,32.73
2019-02-15T00:27:00.885Z,27.23
2019-02-15T00:29:30.360Z,32.90
2019-02-15T00:43:41.368Z,30.10
2019-02-15T00:46:28.566Z,31.37
2019-02-15T00:48:58.921Z,24.30
2019-02-15T00:51:35.863Z,29.00
2019-02-15T00:54:23.060Z,28.90
2019-02-15T00:56:59.537Z,29.80
2019-02-15T00:59:36.482Z,28.50
2019-02-15T01:02:07.642Z,32.23
2019-02-15T01:04:47.465Z,27.80
2019-02-15T01:07:34.836Z,29.30
2019-02-15T01:10:22.620Z,30.77
2019-02-15T01:12:53.599Z,30.30
2019-02-15T01:15:23.140Z,30.33
2019-02-15T01:17:52.468Z,31.63
2019-02-15T01:20:21.895Z,29.23
2019-02-15T01:22:51.349Z,30.47
2019-02-15T01:25:20.751Z,27.87
2019-02-15T01:27:54.431Z,31.77
2019-02-15T01:30:34.283Z,28.23
2019-02-15T01:33:08.143Z,27.80
2019-02-15T01:35:44.965Z,28.93
2019-02-15T01:38:21.730Z,32.00
2019-02-15T01:40:52.687Z,33.93
2019-02-15T01:43:26.557Z,30.43
2019-02-15T01:46:06.892Z,36.60
2019-02-15T01:48:41.627Z,28.23
2019-02-15T01:51:10.954Z,26.97
2019-02-15T01:53:40.281Z,28.93
2019-02-15T01:56:09.628Z,30.93
2019-02-15T01:58:38.934Z,29.07
2019-02-15T02:01:08.282Z,31.40
2019-02-15T02:03:37.656Z,29.60
2019-02-15T02:06:07.069Z,30.67
2019-02-15T02:08:36.460Z,30.53
2019-02-15T02:11:05.786Z,25.23
2019-02-15T02:13:35.153Z,27.33
2019-02-15T02:16:04.532Z,29.03
2019-02-15T02:18:33.862Z,26.07
2019-02-15T02:21:03.392Z,30.63
2019-02-15T02:23:33.762Z,29.43
2019-02-15T02:26:03.088Z,28.50
2019-02-15T02:28:32.508Z,30.17
2019-02-15T02:31:01.900Z,26.87
2019-02-15T02:33:31.291Z,31.63
2019-02-15T02:36:00.711Z,28.60
2019-02-15T02:38:30.168Z,27.10
2019-02-15T02:40:59.502Z,29.37
2019-02-15T02:43:28.878Z,29.90
2019-02-15T02:45:58.269Z,24.87
2019-02-15T02:48:27.588Z,30.00
2019-02-15T02:50:56.950Z,29.00
2019-02-15T02:53:26.266Z,27.00
2019-02-15T02:55:55.600Z,27.70
2019-02-15T02:58:24.928Z,30.50
2019-02-15T03:00:54.258Z,28.67
2019-02-15T03:03:23.581Z,26.90
2019-02-15T03:05:52.935Z,26.07
2019-02-15T03:08:22.331Z,31.80
2019-02-15T03:10:51.645Z,27.67
2019-02-15T03:13:21.049Z,29.80
2019-02-15T03:15:50.391Z,27.90
2019-02-15T03:18:19.872Z,26.90
2019-02-15T03:20:49.278Z,29.03
2019-02-15T03:23:18.676Z,28.07
2019-02-15T03:25:48.009Z,30.63
2019-02-15T03:28:17.423Z,31.20
2019-02-15T03:30:46.757Z,31.63
2019-02-15T03:33:16.093Z,27.57
2019-02-15T03:35:58.827Z,33.93
2019-02-15T03:38:38.922Z,33.87
2019-02-15T03:41:10.113Z,32.37
2019-02-15T03:43:39.440Z,41.67
2019-02-15T03:46:08.761Z,31.07
2019-02-15T03:48:38.102Z,28.83
2019-02-15T03:51:07.439Z,39.50
2019-02-15T03:53:36.770Z,39.40
2019-02-15T03:56:06.191Z,28.03
2019-02-15T03:58:35.576Z,36.20
2019-02-15T04:01:04.956Z,31.33
2019-02-15T04:03:34.488Z,33.17
2019-02-15T04:06:03.941Z,32.10
2019-02-15T04:08:33.269Z,31.97
2019-02-15T04:11:02.696Z,34.40
2019-02-15T04:13:32.025Z,29.20
2019-02-15T04:16:01.328Z,30.57
2019-02-15T04:18:30.666Z,34.37
2019-02-15T04:20:59.984Z,42.80
2019-02-15T04:23:29.301Z,32.63
2019-02-15T04:25:58.655Z,32.50
2019-02-15T04:28:27.977Z,36.40
2019-02-15T04:30:57.305Z,28.83
2019-02-15T04:33:26.674Z,35.33
2019-02-15T04:35:56.062Z,32.00
2019-02-15T04:38:25.461Z,31.77
2019-02-15T04:40:54.824Z,32.10
2019-02-15T04:43:24.136Z,35.27
2019-02-15T04:45:53.453Z,37.20
2019-02-15T04:48:22.789Z,37.47
2019-02-15T04:50:52.114Z,35.17
2019-02-15T04:53:21.437Z,31.53
2019-02-15T04:55:50.776Z,28.00
2019-02-15T04:58:20.105Z,38.03
2019-02-15T05:00:49.422Z,40.23
2019-02-15T05:03:19.592Z,29.00
2019-02-15T05:05:49.069Z,31.73
2019-02-15T05:08:18.397Z,36.13
2019-02-15T05:10:47.806Z,31.37
2019-02-15T05:13:17.250Z,29.60
2019-02-15T05:15:46.563Z,37.80
2019-02-15T05:18:15.945Z,26.00
2019-02-15T05:20:45.329Z,32.57
2019-02-15T05:23:14.656Z,35.23
2019-02-15T05:25:44.008Z,32.57
2019-02-15T05:28:13.413Z,28.57
2019-02-15T05:30:42.741Z,30.97
2019-02-15T05:33:12.114Z,30.33
2019-02-15T05:35:41.445Z,32.63
2019-02-15T05:38:10.760Z,29.60
2019-02-15T05:40:40.134Z,30.03
2019-02-15T05:43:09.523Z,36.43
2019-02-15T05:45:38.908Z,33.67
2019-02-15T05:48:08.372Z,31.67
2019-02-15T05:50:37.759Z,36.63
2019-02-15T05:53:07.098Z,29.13
2019-02-15T05:55:36.462Z,35.17
2019-02-15T05:58:05.779Z,33.43
2019-02-15T06:00:37.278Z,32.43
2019-02-15T06:03:06.224Z,35.17
2019-02-15T06:05:36.619Z,33.40
2019-02-15T06:08:05.954Z,31.30
2019-02-15T06:10:35.322Z,38.43
2019-02-15T06:13:04.653Z,29.20
2019-02-15T06:15:33.968Z,33.57
2019-02-15T06:18:03.311Z,35.80
2019-02-15T06:20:32.716Z,35.57
2019-02-15T06:23:02.031Z,30.17
2019-02-15T06:25:31.390Z,33.53
2019-02-15T06:28:00.714Z,30.67
2019-02-15T06:30:30.029Z,39.53
2019-02-15T06:32:59.364Z,41.77
2019-02-15T06:35:29.665Z,34.73
2019-02-15T06:37:58.993Z,32.70
2019-02-15T06:40:28.329Z,35.77
2019-02-15T06:42:57.649Z,30.57
2019-02-15T06:45:26.999Z,34.93
2019-02-15T06:47:56.331Z,32.43
2019-02-15T06:50:28.455Z,33.13
2019-02-15T06:52:57.787Z,30.73
2019-02-15T06:55:27.109Z,34.17
2019-02-15T06:57:56.427Z,33.90
2019-02-15T07:00:27.432Z,34.90
2019-02-15T07:03:01.324Z,36.73
2019-02-15T07:05:30.651Z,36.53
2019-02-15T07:08:00.108Z,35.37
2019-02-15T07:10:29.442Z,33.10
2019-02-15T07:12:58.777Z,34.17
2019-02-15T07:15:33.662Z,32.73
2019-02-15T07:17:59.150Z,35.87
2019-02-15T07:20:28.516Z,41.50
2019-02-15T07:22:57.837Z,38.10
2019-02-15T07:25:27.249Z,34.83
2019-02-15T07:27:56.581Z,35.87
2019-02-15T07:30:25.903Z,37.23
2019-02-15T07:32:55.275Z,34.53
2019-02-15T07:35:24.621Z,39.30
2019-02-15T07:37:54.032Z,35.17
2019-02-15T07:40:23.409Z,42.87
2019-02-15T07:42:52.748Z,37.13
2019-02-15T07:45:22.712Z,32.33
2019-02-15T07:47:52.169Z,35.47
2019-02-15T07:50:21.530Z,39.10
2019-02-15T07:52:50.841Z,36.37
2019-02-15T07:55:20.166Z,35.17
2019-02-15T07:57:49.520Z,42.97
2019-02-15T08:00:18.913Z,39.27
2019-02-15T08:02:48.233Z,40.10
2019-02-15T08:05:17.659Z,39.18
2019-02-15T08:07:47.040Z,38.33
2019-02-15T08:10:16.372Z,46.87
2019-02-15T08:12:45.718Z,38.93
2019-02-15T08:15:15.192Z,33.13
2019-02-15T08:17:45.914Z,42.60
2019-02-15T08:20:15.273Z,48.57
2019-02-15T08:22:44.598Z,37.93
2019-02-15T08:25:13.929Z,40.90
2019-02-15T08:27:43.273Z,50.90
2019-02-15T08:30:12.754Z,41.43
2019-02-15T08:32:42.160Z,38.53
2019-02-15T08:35:11.697Z,43.47
2019-02-15T08:37:41.076Z,39.87
2019-02-15T08:40:11.356Z,38.63
2019-02-15T08:42:40.730Z,41.93
2019-02-15T08:45:13.299Z,41.07
2019-02-15T08:47:42.800Z,43.83
2019-02-15T08:50:12.643Z,40.13
2019-02-15T08:52:42.104Z,34.20
2019-02-15T08:55:12.022Z,38.13
2019-02-15T08:57:41.469Z,37.37
2019-02-15T09:00:12.728Z,39.37
2019-02-15T09:02:43.175Z,36.30
2019-02-15T09:05:13.037Z,38.37
2019-02-15T09:07:42.433Z,41.53
2019-02-15T09:10:13.529Z,42.07
2019-02-15T09:12:42.871Z,38.80
2019-02-15T09:15:15.078Z,40.97
2019-02-15T09:17:44.546Z,37.97
2019-02-15T09:20:13.953Z,34.73
2019-02-15T09:22:43.381Z,32.27
2019-02-15T09:25:12.922Z,32.43
2019-02-15T09:27:44.946Z,38.37
2019-02-15T09:30:15.062Z,34.03
2019-02-15T09:32:44.534Z,39.77
2019-02-15T09:35:13.857Z,35.90
2019-02-15T09:37:43.221Z,38.63
2019-02-15T09:40:12.624Z,37.47
2019-02-15T09:42:41.961Z,34.83
2019-02-15T09:45:11.551Z,32.03
2019-02-15T09:47:41.000Z,36.03
2019-02-15T09:50:12.022Z,37.43
2019-02-15T09:52:40.854Z,35.00
2019-02-15T09:55:09.862Z,37.43
2019-02-15T09:57:38.848Z,35.43
2019-02-15T10:00:08.688Z,36.57
2019-02-15T10:02:37.763Z,38.17
2019-02-15T10:05:07.424Z,43.90
2019-02-15T10:07:36.420Z,36.00
2019-02-15T10:10:06.886Z,37.97
2019-02-15T10:12:35.822Z,35.20
2019-02-15T10:15:06.424Z,37.57
2019-02-15T10:17:35.522Z,36.60
2019-02-15T10:20:05.269Z,44.60
2019-02-15T10:22:34.252Z,36.67
2019-02-15T10:25:03.771Z,36.77
2019-02-15T10:27:32.984Z,37.37
2019-02-15T10:30:02.557Z,41.23
2019-02-15T10:32:32.172Z,36.43
2019-02-15T10:35:01.135Z,35.63
2019-02-15T10:37:30.113Z,34.13
2019-02-15T10:39:59.065Z,39.53
2019-02-15T10:42:27.962Z,36.93
2019-02-15T10:44:56.877Z,39.87
2019-02-15T10:47:25.840Z,38.53
2019-02-15T10:49:54.743Z,35.80
2019-02-15T10:52:24.633Z,37.30
2019-02-15T10:54:53.573Z,33.27
2019-02-15T10:57:22.498Z,35.83
2019-02-15T10:59:51.441Z,38.30
2019-02-15T11:02:20.466Z,36.40
2019-02-15T11:04:49.519Z,36.53
2019-02-15T11:07:18.794Z,36.07
2019-02-15T11:09:54.649Z,34.47
2019-02-15T11:12:25.221Z,36.47
2019-02-15T11:14:54.149Z,34.47
2019-02-15T11:17:23.129Z,34.97
2019-02-15T11:19:52.095Z,34.13
2019-02-15T11:22:21.029Z,37.90
2019-02-15T11:24:49.941Z,37.53
2019-02-15T11:27:18.846Z,35.37
2019-02-15T11:29:47.793Z,36.27
2019-02-15T11:32:16.708Z,31.63
2019-02-15T11:34:45.636Z,35.70
2019-02-15T11:37:14.548Z,36.87
2019-02-15T11:39:43.453Z,36.83
2019-02-15T11:42:12.391Z,37.43
2019-02-15T11:44:41.320Z,41.37
2019-02-15T11:47:10.230Z,40.97
2019-02-15T11:49:39.146Z,42.30
2019-02-15T11:52:08.144Z,31.03
2019-02-15T11:54:37.176Z,32.73
2019-02-15T11:57:06.173Z,36.40
2019-02-15T11:59:35.096Z,35.87
2019-02-15T12:02:06.466Z,32.67
2019-02-15T12:04:34.680Z,38.60
2019-02-15T12:07:03.582Z,31.27
2019-02-15T12:09:32.573Z,35.07
2019-02-15T12:12:10.200Z,33.17
2019-02-15T12:14:32.069Z,35.70
2019-02-15T12:17:05.630Z,34.17
2019-02-15T12:19:32.744Z,37.03
2019-02-15T12:22:01.683Z,29.60
2019-02-15T12:24:30.594Z,30.17
2019-02-15T12:26:59.565Z,34.23
2019-02-15T12:29:28.506Z,31.37
2019-02-15T12:31:57.417Z,32.80
2019-02-15T12:34:26.347Z,34.20
2019-02-15T12:36:55.298Z,27.20
2019-02-15T12:39:24.233Z,31.60
2019-02-15T12:41:53.186Z,31.73
2019-02-15T12:44:22.161Z,30.00
2019-02-15T12:46:51.069Z,28.67
2019-02-15T12:49:20.064Z,31.40
2019-02-15T12:51:48.951Z,28.60
2019-02-15T12:54:17.924Z,31.13
2019-02-15T12:56:46.922Z,31.17
2019-02-15T12:59:15.832Z,29.50
2019-02-15T13:01:44.804Z,30.60
2019-02-15T13:04:13.737Z,29.90
2019-02-15T13:06:43.224Z,30.43
2019-02-15T13:09:12.225Z,28.60
2019-02-15T13:11:41.171Z,32.27
2019-02-15T13:14:10.073Z,30.63
2019-02-15T13:16:38.978Z,28.83
2019-02-15T13:19:07.962Z,28.93
2019-02-15T13:21:36.876Z,28.93
2019-02-15T13:24:05.790Z,32.17
2019-02-15T13:26:34.745Z,34.70
2019-02-15T13:29:03.821Z,32.90
2019-02-15T13:31:32.755Z,29.03
2019-02-15T13:34:01.726Z,30.77
2019-02-15T13:36:31.596Z,31.83
2019-02-15T13:39:00.502Z,36.57
2019-02-15T13:41:31.057Z,28.23
2019-02-15T13:43:59.956Z,31.70
2019-02-15T13:46:28.859Z,29.67
2019-02-15T13:48:57.812Z,32.47
2019-02-15T13:51:26.725Z,27.47
2019-02-15T13:53:55.640Z,27.50
2019-02-15T13:56:24.618Z,28.50
2019-02-15T13:58:53.584Z,27.93
2019-02-15T14:01:22.513Z,33.20
2019-02-15T14:03:51.444Z,27.60
2019-02-15T14:06:20.359Z,29.37
2019-02-15T14:08:49.276Z,30.07
2019-02-15T14:11:18.255Z,34.37
2019-02-15T14:13:47.240Z,27.70
2019-02-15T14:16:16.155Z,32.77
2019-02-15T14:18:45.221Z,25.43
2019-02-15T14:21:14.139Z,29.33
2019-02-15T14:23:43.115Z,28.53
2019-02-15T14:26:12.067Z,28.63
2019-02-15T14:28:41.048Z,30.00
2019-02-15T14:31:09.952Z,28.43
2019-02-15T14:33:38.905Z,25.47
2019-02-15T14:36:08.371Z,23.37
2019-02-15T14:38:38.597Z,29.57
2019-02-15T14:41:07.576Z,25.27
2019-02-15T14:43:36.461Z,32.27
2019-02-15T14:46:05.373Z,24.07
2019-02-15T14:48:35.917Z,21.50
2019-02-15T14:51:04.873Z,26.00
2019-02-15T14:53:33.857Z,27.20
2019-02-15T14:56:02.759Z,29.43
2019-02-15T14:58:31.697Z,23.70
2019-02-15T15:01:00.611Z,26.33
2019-02-15T15:03:29.658Z,23.67
2019-02-15T15:05:58.584Z,29.23
2019-02-15T15:08:27.561Z,26.63
2019-02-15T15:10:56.502Z,24.87
2019-02-15T15:13:25.401Z,20.50
2019-02-15T15:15:54.313Z,29.13
2019-02-15T15:18:23.244Z,22.97
2019-02-15T15:20:52.149Z,23.13
2019-02-15T15:23:21.140Z,24.40
2019-02-15T15:25:50.070Z,23.30
2019-02-15T15:28:18.982Z,24.57
2019-02-15T15:30:47.896Z,20.33
2019-02-15T15:33:16.849Z,23.30
2019-02-15T15:35:45.754Z,26.80
2019-02-15T15:38:14.752Z,26.53
2019-02-15T15:40:43.675Z,27.40
2019-02-15T15:43:12.584Z,30.93
2019-02-15T15:45:41.512Z,26.57
2019-02-15T15:48:22.290Z,28.43
2019-02-15T15:50:44.115Z,27.53
2019-02-15T15:53:13.065Z,30.97
2019-02-15T15:55:41.970Z,30.83
2019-02-15T15:58:10.874Z,27.57
2019-02-15T16:00:39.801Z,24.10
2019-02-15T16:03:08.694Z,27.23
2019-02-15T16:05:37.592Z,29.63
2019-02-15T16:08:06.574Z,25.67
2019-02-15T16:10:35.512Z,24.03
2019-02-15T16:13:04.419Z,26.40
2019-02-15T16:15:33.327Z,25.00
2019-02-15T16:18:02.265Z,27.73
2019-02-15T16:20:31.163Z,23.40
2019-02-15T16:23:00.065Z,25.27
2019-02-15T16:25:28.978Z,22.87
2019-02-15T16:27:57.921Z,28.83
2019-02-15T16:30:26.885Z,19.20
2019-02-15T16:32:55.835Z,17.80
2019-02-15T16:35:24.725Z,20.60
2019-02-15T16:37:53.654Z,16.43
2019-02-15T16:40:22.560Z,16.33
2019-02-15T16:42:51.455Z,20.53
2019-02-15T16:45:20.372Z,16.33
2019-02-15T16:47:49.384Z,16.93
2019-02-15T16:50:18.296Z,12.07
2019-02-15T16:52:47.206Z,13.70
2019-02-15T16:55:16.126Z,18.03
2019-02-15T16:57:45.076Z,18.03
2019-02-15T17:00:14.421Z,13.93
2019-02-15T17:02:43.318Z,14.87
2019-02-15T17:05:12.401Z,19.83
2019-02-15T17:07:41.318Z,14.43
2019-02-15T17:10:10.652Z,17.27
2019-02-15T17:12:39.730Z,17.37
2019-02-15T17:15:10.084Z,16.03
2019-02-15T17:17:39.070Z,15.17
2019-02-15T17:20:08.849Z,12.83
2019-02-15T17:22:37.748Z,14.80
2019-02-15T17:25:07.922Z,15.20
2019-02-15T17:27:36.861Z,14.73
2019-02-15T17:30:07.342Z,18.60
2019-02-15T17:32:36.262Z,16.23
2019-02-15T17:35:06.379Z,18.20
2019-02-15T17:37:35.343Z,15.27
2019-02-15T17:40:05.867Z,17.10
2019-02-15T17:42:34.883Z,15.27
2019-02-15T17:45:05.978Z,18.60
2019-02-15T17:47:34.952Z,16.77
2019-02-15T17:50:04.564Z,20.57
2019-02-15T17:52:33.617Z,23.00
2019-02-15T17:55:02.528Z,18.23
2019-02-15T17:57:31.546Z,18.27
2019-02-15T18:00:00.527Z,19.40
2019-02-15T18:02:29.513Z,18.30
2019-02-15T18:04:58.456Z,15.93
2019-02-15T18:07:27.378Z,23.53
2019-02-15T18:09:56.296Z,16.77
2019-02-15T18:12:25.248Z,18.83
2019-02-15T18:14:54.148Z,20.53
2019-02-15T18:17:23.064Z,17.63
2019-02-15T18:19:52.141Z,19.97
2019-02-15T18:22:21.042Z,19.43
2019-02-15T18:24:49.948Z,17.50
2019-02-15T18:27:18.936Z,18.90
2019-02-15T18:29:48.038Z,19.73
2019-02-15T18:32:16.967Z,18.73
2019-02-15T18:34:45.918Z,16.50
2019-02-15T18:37:14.901Z,20.20
2019-02-15T18:39:43.809Z,16.93
2019-02-15T18:42:12.754Z,17.87
2019-02-15T18:44:41.657Z,18.70
2019-02-15T18:47:10.581Z,19.90
2019-02-15T18:49:39.533Z,20.43
2019-02-15T18:52:10.000Z,14.73
2019-02-15T18:54:38.990Z,16.40
2019-02-15T18:57:07.909Z,19.57
2019-02-15T18:59:36.857Z,15.73
2019-02-15T19:02:05.812Z,16.43
2019-02-15T19:04:35.064Z,15.97
2019-02-15T19:07:04.424Z,20.30
2019-02-15T19:09:33.768Z,18.47
2019-02-15T19:12:03.166Z,19.37
2019-02-15T19:14:32.501Z,17.40
2019-02-15T19:17:01.813Z,17.87
2019-02-15T19:19:32.182Z,17.50
2019-02-15T19:22:01.517Z,16.57
2019-02-15T19:24:30.841Z,21.93
2019-02-15T19:27:00.171Z,17.43
2019-02-15T19:29:29.506Z,17.23
2019-02-15T19:31:58.846Z,20.23
2019-02-15T19:34:28.308Z,17.77
2019-02-15T19:36:57.801Z,17.93
2019-02-15T19:39:27.133Z,16.97
2019-02-15T19:41:56.531Z,18.53
2019-02-15T19:44:25.913Z,16.43
2019-02-15T19:46:55.232Z,19.20
2019-02-15T19:49:24.630Z,22.00
2019-02-15T19:51:53.957Z,19.47
2019-02-15T19:54:23.268Z,22.73
2019-02-15T19:56:52.601Z,19.97
2019-02-15T19:59:21.974Z,20.10
2019-02-15T20:01:51.288Z,18.33
2019-02-15T20:04:20.621Z,20.13
2019-02-15T20:06:50.046Z,21.00
2019-02-15T20:09:19.580Z,26.73
2019-02-15T20:11:49.045Z,19.57
2019-02-15T20:14:18.468Z,21.13
2019-02-15T20:16:47.796Z,22.33
2019-02-15T20:19:17.185Z,19.90
2019-02-15T20:21:46.535Z,18.20
2019-02-15T20:24:15.869Z,17.93
2019-02-15T20:26:45.190Z,20.17
2019-02-15T20:29:14.628Z,19.23
2019-02-15T20:31:44.009Z,23.27
2019-02-15T20:34:13.410Z,21.13
2019-02-15T20:36:42.815Z,21.57
2019-02-15T20:39:12.279Z,21.03
2019-02-15T20:41:56.747Z,18.97
2019-02-15T20:44:29.371Z,24.53
2019-02-15T20:46:58.775Z,19.27
2019-02-15T20:49:28.102Z,22.10
2019-02-15T20:51:57.435Z,20.70
2019-02-15T20:54:26.867Z,19.37
2019-02-15T20:56:56.305Z,20.10
2019-02-15T20:59:25.721Z,22.70
2019-02-15T21:01:55.136Z,24.30
2019-02-15T21:04:24.461Z,21.33
2019-02-15T21:06:55.392Z,24.30
2019-02-15T21:09:24.717Z,18.87
2019-02-15T21:11:54.038Z,22.70
2019-02-15T21:14:23.410Z,25.00
2019-02-15T21:16:52.730Z,23.83
2019-02-15T21:19:22.062Z,24.40
2019-02-15T21:21:51.422Z,21.10
2019-02-15T21:24:20.757Z,20.20
2019-02-15T21:26:50.082Z,19.03
2019-02-15T21:29:19.450Z,22.73
2019-02-15T21:31:48.772Z,19.43
2019-02-15T21:34:18.096Z,23.07
2019-02-15T21:36:47.443Z,19.33
2019-02-15T21:39:16.766Z,21.60
2019-02-15T21:41:46.093Z,22.70
2019-02-15T21:44:15.446Z,24.67
2019-02-15T21:46:44.772Z,25.57
2019-02-15T21:49:14.097Z,24.67
2019-02-15T21:51:43.448Z,22.40
2019-02-15T21:54:12.847Z,21.20
2019-02-15T21:56:42.157Z,24.07
2019-02-15T21:59:11.493Z,21.40
2019-02-15T22:01:41.886Z,26.73
2019-02-15T22:04:11.266Z,27.20
2019-02-15T22:06:40.714Z,22.93
2019-02-15T22:09:10.173Z,26.77
2019-02-15T22:11:39.866Z,24.40
2019-02-15T22:14:09.224Z,31.40
2019-02-15T22:16:38.597Z,28.67
2019-02-15T22:19:07.981Z,28.50
2019-02-15T22:21:37.332Z,26.33
2019-02-15T22:24:06.653Z,28.83
2019-02-15T22:26:36.049Z,34.73
2019-02-15T22:29:05.439Z,30.00
2019-02-15T22:31:34.792Z,30.57
2019-02-15T22:34:04.117Z,28.33
2019-02-15T22:36:33.432Z,32.07
2019-02-15T22:39:02.787Z,30.13
2019-02-15T22:41:33.792Z,29.70
2019-02-15T22:44:03.136Z,25.47
2019-02-15T22:46:32.455Z,27.93
2019-02-15T22:49:01.849Z,30.67
2019-02-15T22:51:31.300Z,27.33
2019-02-15T22:54:00.652Z,31.97
2019-02-15T22:56:29.976Z,35.30
2019-02-15T22:58:59.325Z,31.17
2019-02-15T23:01:28.972Z,32.70
2019-02-15T23:03:58.530Z,37.60
2019-02-15T23:06:27.972Z,36.63
2019-02-15T23:08:57.603Z,36.30
2019-02-15T23:11:26.933Z,32.53
2019-02-15T23:13:56.292Z,37.33
2019-02-15T23:16:25.622Z,32.97
2019-02-15T23:18:54.941Z,32.97
2019-02-15T23:21:24.296Z,37.10
2019-02-15T23:23:53.622Z,33.10
2019-02-15T23:26:23.006Z,36.83
2019-02-15T23:28:52.437Z,40.60
2019-02-15T23:31:21.901Z,37.67
2019-02-15T23:33:51.226Z,31.60
2019-02-15T23:36:20.566Z,34.03
2019-02-15T23:38:49.896Z,40.40
2019-02-15T23:41:19.213Z,35.63
2019-02-15T23:43:48.596Z,36.67
2019-02-15T23:46:18.001Z,36.30
2019-02-15T23:48:47.333Z,31.20
2019-02-15T23:51:16.802Z,40.83
2019-02-15T23:53:46.199Z,44.50
2019-02-15T23:56:15.515Z,34.13
2019-02-15T23:58:44.862Z,40.43
